WMKJ/JHB METAR and TAF weather

Enter ICAO airport designator
Station Type Date Time Source
WMKJ METAR 2023/02/05 13:00 UTC NOAA

WMKJ 051300Z VRB03KT 9999 -RA FEW020 25/24 Q1008


Station Type Date Time Source
WMKJ Decoded METAR 2023/02/05 13:00 UTC NOAA

Johore Bharu / Senai, Malaysia (WMKJ) 01-38N 103-40E 40M
Feb 05, 2023 - 08:00 AM EST / 2023.02.05 1300 UTC
Wind: Variable at 3 MPH (3 KT):0
Visibility: greater than 7 mile(s):0
Sky conditions: mostly clear
Weather: light rain
Temperature: 77 F (25 C)
Dew Point: 75 F (24 C)
Relative Humidity: 94%
Pressure (altimeter): 29.77 in. Hg (1008 hPa)
ob: WMKJ 051300Z VRB03KT 9999 -RA FEW020 25/24 Q1008
cycle: 13

Station Type Date Time Source
WMKJ TAF 2023/02/05 12:09 UTC NOAA

TAF TAF WMKJ 051100Z 0512/0612 03005KT 9999 FEW018
TEMPO 0605/0610 02010KT 4000 TSRA FEW017CB SCT019

Example: see airport list